Time;durP1;ratioP1;P1;durP2;ratioP2;P2;SDS_P1;SDS_P2;PMS_P1;PMS_P2;Temp;Humidity;BMP_temperature;BMP_pressure;BME280_temperature;BME280_humidity;BME280_pressure;Samples;Min_cycle;Max_cycle;Signal;HPM_P1;HPM_P2
2021/04/07 00:02:01;;;;;;;17.33;9.60;;;23.30;31.30;;;;;;6195185;27;82844;-65
2021/04/07 00:05:02;;;;;;;16.05;8.45;;;23.30;31.20;;;;;;6190454;27;83480;-64
2021/04/07 00:08:02;;;;;;;17.42;9.60;;;23.30;31.20;;;;;;6188917;28;80681;-64
2021/04/07 00:11:03;;;;;;;17.25;8.90;;;23.30;31.20;;;;;;6200246;28;80464;-64
2021/04/07 00:14:03;;;;;;;15.63;8.48;;;23.30;31.10;;;;;;6195652;28;82567;-65
2021/04/07 00:17:04;;;;;;;16.40;8.52;;;23.30;31.10;;;;;;6176773;28;80813;-65
2021/04/07 00:20:04;;;;;;;18.83;9.32;;;23.30;31.10;;;;;;6194775;28;82742;-66
2021/04/07 00:23:05;;;;;;;16.83;8.05;;;23.30;31.00;;;;;;6194339;27;80411;-65
2021/04/07 00:26:06;;;;;;;16.30;8.55;;;23.40;31.00;;;;;;6195532;28;81133;-64
2021/04/07 00:29:06;;;;;;;14.15;7.88;;;23.30;30.90;;;;;;6199781;28;81582;-65
2021/04/07 00:32:07;;;;;;;15.20;8.38;;;23.30;30.90;;;;;;6190076;28;81845;-65
2021/04/07 00:35:07;;;;;;;17.40;8.55;;;23.30;30.80;;;;;;6205625;27;80513;-64
2021/04/07 00:38:08;;;;;;;15.68;8.18;;;23.30;30.70;;;;;;6205895;28;80385;-65
2021/04/07 00:41:08;;;;;;;16.10;8.40;;;23.30;30.70;;;;;;6193086;28;80665;-65
2021/04/07 00:44:09;;;;;;;16.88;8.70;;;23.40;30.60;;;;;;6211474;27;80989;-64
2021/04/07 00:47:09;;;;;;;15.30;8.55;;;23.40;30.50;;;;;;6205066;28;80373;-65
2021/04/07 00:50:10;;;;;;;15.23;7.72;;;23.40;30.50;;;;;;6199239;28;81006;-65
2021/04/07 00:53:11;;;;;;;17.23;8.55;;;23.30;30.50;;;;;;6195296;27;82707;-65
2021/04/07 00:56:11;;;;;;;16.90;7.63;;;23.30;30.40;;;;;;6215768;28;80982;-65
2021/04/07 00:59:12;;;;;;;16.63;8.00;;;23.40;30.40;;;;;;6219761;28;83334;-65
2021/04/07 01:02:12;;;;;;;15.07;7.63;;;23.30;30.40;;;;;;6206575;27;80560;-65
2021/04/07 01:05:13;;;;;;;15.88;8.20;;;23.30;30.50;;;;;;6197518;28;81937;-65
2021/04/07 01:08:13;;;;;;;16.40;8.38;;;23.30;30.40;;;;;;6203365;28;80865;-66
2021/04/07 01:11:14;;;;;;;12.73;6.97;;;23.20;30.80;;;;;;6214096;27;81858;-65
2021/04/07 01:14:15;;;;;;;14.40;7.63;;;23.20;31.10;;;;;;6202496;28;82632;-65
2021/04/07 01:17:15;;;;;;;14.63;8.30;;;23.30;30.80;;;;;;6210530;28;80606;-66
2021/04/07 01:20:16;;;;;;;13.70;7.13;;;23.30;30.20;;;;;;6213752;28;87019;-65
2021/04/07 01:23:16;;;;;;;13.55;7.30;;;23.30;30.20;;;;;;6198172;27;80563;-65
2021/04/07 01:26:17;;;;;;;13.50;7.30;;;23.30;30.20;;;;;;6188897;28;80575;-66
2021/04/07 01:29:17;;;;;;;13.18;6.93;;;23.20;30.00;;;;;;6192310;28;81459;-64
2021/04/07 01:32:18;;;;;;;14.43;7.75;;;23.20;30.10;;;;;;6206252;28;80614;-64
2021/04/07 01:35:19;;;;;;;13.60;7.25;;;23.20;29.90;;;;;;6214075;28;80643;-69
2021/04/07 01:38:19;;;;;;;16.95;7.90;;;23.20;30.20;;;;;;6188389;27;80473;-67
2021/04/07 01:41:19;;;;;;;12.25;6.75;;;23.20;30.60;;;;;;6203065;27;80312;-65
2021/04/07 01:44:20;;;;;;;17.05;8.02;;;23.20;30.70;;;;;;6201564;27;82172;-65
2021/04/07 01:47:20;;;;;;;10.80;6.15;;;23.10;30.20;;;;;;6204476;27;80698;-65
2021/04/07 01:50:21;;;;;;;13.48;6.97;;;23.10;30.20;;;;;;6205210;27;81367;-65
2021/04/07 01:53:21;;;;;;;14.73;6.40;;;23.00;29.80;;;;;;6220948;27;80898;-65
2021/04/07 01:56:22;;;;;;;13.07;6.68;;;23.10;30.10;;;;;;6199190;28;80629;-65
2021/04/07 01:59:22;;;;;;;10.98;6.20;;;23.00;30.10;;;;;;6207183;28;80764;-65
2021/04/07 02:02:23;;;;;;;13.40;6.50;;;23.00;30.00;;;;;;6238871;28;81584;-65
2021/04/07 02:05:23;;;;;;;11.98;5.78;;;23.00;29.50;;;;;;6219296;27;80989;-65
2021/04/07 02:08:24;;;;;;;10.15;5.60;;;23.00;29.40;;;;;;6213680;27;80737;-65
2021/04/07 02:11:24;;;;;;;10.05;5.53;;;23.00;29.90;;;;;;6199564;28;81609;-65
2021/04/07 02:14:25;;;;;;;10.50;5.72;;;22.90;29.50;;;;;;6206669;28;80674;-65
2021/04/07 02:17:25;;;;;;;9.43;5.35;;;22.90;29.30;;;;;;6213485;27;80808;-65
2021/04/07 02:20:26;;;;;;;11.43;5.55;;;22.90;29.30;;;;;;6218922;27;83268;-65
2021/04/07 02:23:26;;;;;;;8.95;5.28;;;22.90;29.40;;;;;;6201130;28;81661;-65
2021/04/07 02:26:27;;;;;;;8.88;4.68;;;22.90;29.60;;;;;;6200168;28;81155;-66
2021/04/07 02:29:28;;;;;;;9.07;5.03;;;22.90;29.70;;;;;;6200702;28;82168;-65
2021/04/07 02:32:28;;;;;;;8.32;4.95;;;22.90;29.20;;;;;;6202329;28;81823;-65
2021/04/07 02:35:29;;;;;;;9.63;5.15;;;22.90;29.00;;;;;;6200767;27;80701;-65
2021/04/07 02:38:29;;;;;;;8.75;4.50;;;22.90;28.80;;;;;;6202547;27;81823;-65
2021/04/07 02:41:29;;;;;;;7.63;5.03;;;22.90;29.40;;;;;;6201259;28;80105;-65
2021/04/07 02:44:30;;;;;;;9.43;5.43;;;22.80;28.90;;;;;;6213174;27;80776;-65
2021/04/07 02:47:31;;;;;;;11.52;5.28;;;22.90;28.80;;;;;;6217186;27;81280;-65
2021/04/07 02:50:31;;;;;;;8.27;5.07;;;22.90;28.70;;;;;;6196802;28;80878;-65
2021/04/07 02:53:31;;;;;;;7.28;4.45;;;22.90;28.40;;;;;;6200074;28;81610;-65
2021/04/07 02:56:32;;;;;;;11.07;5.40;;;22.90;28.30;;;;;;6221882;27;81418;-65
2021/04/07 02:59:33;;;;;;;8.77;4.70;;;23.00;28.30;;;;;;6228309;28;81494;-65
2021/04/07 03:02:33;;;;;;;8.02;5.13;;;23.00;28.20;;;;;;6198766;27;80772;-65
2021/04/07 03:05:34;;;;;;;8.13;5.07;;;23.00;28.20;;;;;;6210630;27;80645;-66
2021/04/07 03:08:34;;;;;;;9.32;5.10;;;23.00;28.20;;;;;;6215544;27;81449;-65
2021/04/07 03:11:35;;;;;;;8.85;4.65;;;23.10;28.20;;;;;;6196766;28;81375;-65
2021/04/07 03:14:35;;;;;;;7.55;4.55;;;23.10;28.30;;;;;;6200882;28;80382;-65
2021/04/07 03:17:36;;;;;;;6.82;4.60;;;23.10;28.10;;;;;;6203442;28;81360;-65
2021/04/07 03:20:36;;;;;;;6.95;4.32;;;23.10;28.10;;;;;;6201875;27;81360;-65
2021/04/07 03:23:37;;;;;;;7.70;4.60;;;23.20;28.10;;;;;;6196854;28;83148;-65
2021/04/07 03:26:37;;;;;;;8.20;4.47;;;23.20;28.10;;;;;;6191353;27;81147;-65
2021/04/07 03:29:38;;;;;;;8.43;4.70;;;23.20;28.00;;;;;;6202897;28;81055;-65
2021/04/07 03:32:38;;;;;;;7.88;4.93;;;23.20;27.90;;;;;;6211745;27;80536;-65
2021/04/07 03:35:39;;;;;;;7.60;4.50;;;23.20;27.90;;;;;;6204275;28;80912;-65
2021/04/07 03:38:39;;;;;;;7.32;4.60;;;23.20;27.90;;;;;;6190975;28;80751;-65
2021/04/07 03:41:40;;;;;;;8.25;4.65;;;23.20;27.90;;;;;;6195401;27;81672;-64
2021/04/07 03:44:40;;;;;;;15.80;5.22;;;23.20;27.80;;;;;;6216285;28;83425;-65
2021/04/07 03:47:41;;;;;;;6.47;4.10;;;23.20;27.80;;;;;;6182184;28;81737;-65
2021/04/07 03:50:41;;;;;;;7.70;4.60;;;23.30;27.80;;;;;;6204482;28;80903;-64
2021/04/07 03:53:43;;;;;;;8.25;4.78;;;23.30;27.80;;;;;;6224272;28;81588;-65
2021/04/07 03:56:43;;;;;;;7.85;4.03;;;23.30;27.70;;;;;;6224006;27;80350;-66
2021/04/07 03:59:44;;;;;;;9.85;4.90;;;23.30;27.70;;;;;;6225001;28;80739;-65
2021/04/07 04:02:44;;;;;;;9.55;5.25;;;23.30;27.60;;;;;;6205594;27;80599;-65
2021/04/07 04:05:45;;;;;;;7.43;3.67;;;23.30;27.60;;;;;;6211578;27;80710;-65
2021/04/07 04:08:45;;;;;;;9.93;5.05;;;23.30;27.50;;;;;;6196835;28;85762;-65
2021/04/07 04:11:46;;;;;;;7.70;4.72;;;23.30;27.50;;;;;;6192319;27;81004;-66
2021/04/07 04:14:46;;;;;;;8.40;4.88;;;23.30;27.40;;;;;;6199865;28;80887;-65
2021/04/07 04:17:47;;;;;;;7.78;4.63;;;23.30;27.40;;;;;;6197636;27;80927;-66
2021/04/07 04:20:47;;;;;;;8.00;5.25;;;23.30;27.30;;;;;;6197098;28;81387;-65
2021/04/07 04:23:48;;;;;;;10.25;5.13;;;23.30;27.30;;;;;;6200160;28;80766;-65
2021/04/07 04:26:48;;;;;;;9.43;5.05;;;23.30;27.20;;;;;;6214981;28;83349;-64
2021/04/07 04:29:49;;;;;;;7.78;4.65;;;23.30;27.50;;;;;;6211245;28;80832;-65
2021/04/07 04:32:50;;;;;;;9.43;4.88;;;23.30;27.40;;;;;;6206056;28;80200;-66
2021/04/07 04:35:50;;;;;;;6.90;4.50;;;23.30;27.90;;;;;;6192866;27;81349;-66
2021/04/07 04:38:51;;;;;;;10.40;5.15;;;23.30;28.00;;;;;;6194444;28;80682;-66
2021/04/07 04:41:51;;;;;;;9.18;4.68;;;23.30;28.20;;;;;;6198794;28;81740;-67
2021/04/07 04:44:52;;;;;;;8.52;5.05;;;23.30;28.20;;;;;;6219085;27;81576;-65
2021/04/07 04:47:52;;;;;;;8.90;5.85;;;23.30;28.40;;;;;;6212709;27;81791;-66
2021/04/07 04:50:53;;;;;;;8.38;4.82;;;23.30;28.20;;;;;;6190520;28;81917;-65
2021/04/07 04:53:54;;;;;;;10.10;4.82;;;23.30;28.10;;;;;;6193891;28;80492;-65
2021/04/07 04:56:55;;;;;;;9.43;5.00;;;23.20;28.30;;;;;;6192079;28;80696;-66
2021/04/07 04:59:55;;;;;;;8.02;5.38;;;23.20;27.90;;;;;;6189594;28;81862;-65
2021/04/07 05:02:56;;;;;;;8.82;4.60;;;23.20;27.90;;;;;;6193554;28;80522;-66
2021/04/07 05:05:56;;;;;;;8.90;5.45;;;23.20;28.30;;;;;;6194386;28;81397;-66
2021/04/07 05:08:57;;;;;;;8.52;4.40;;;23.20;28.60;;;;;;6198353;28;80595;-66
2021/04/07 05:11:57;;;;;;;10.13;6.13;;;23.20;28.60;;;;;;6201677;27;82203;-65
2021/04/07 05:14:58;;;;;;;10.13;5.72;;;23.10;29.00;;;;;;6207880;28;82590;-66
2021/04/07 05:17:58;;;;;;;11.75;5.88;;;23.10;29.60;;;;;;6215021;27;80700;-67
2021/04/07 05:20:59;;;;;;;11.70;5.45;;;23.20;29.90;;;;;;6202716;28;81648;-66
2021/04/07 05:23:59;;;;;;;8.65;4.95;;;23.20;29.60;;;;;;6185306;27;80405;-66
2021/04/07 05:27:00;;;;;;;7.90;4.72;;;23.20;29.60;;;;;;6216271;27;80340;-66
2021/04/07 05:30:01;;;;;;;8.98;5.40;;;23.20;29.50;;;;;;6222049;28;81766;-67
2021/04/07 05:33:01;;;;;;;8.30;5.15;;;23.20;29.70;;;;;;6225411;27;80997;-67
2021/04/07 05:36:02;;;;;;;12.10;5.47;;;23.10;29.60;;;;;;6217757;28;81512;-67
2021/04/07 05:39:02;;;;;;;10.85;5.93;;;23.20;30.40;;;;;;6202605;28;80427;-67
2021/04/07 05:42:03;;;;;;;10.30;5.68;;;23.20;29.50;;;;;;6202291;27;80759;-65
2021/04/07 05:45:03;;;;;;;9.77;4.97;;;23.20;29.50;;;;;;6194008;27;81269;-65
2021/04/07 05:48:04;;;;;;;8.50;5.63;;;23.20;29.30;;;;;;6213908;27;81793;-66
2021/04/07 05:51:04;;;;;;;9.52;5.53;;;23.20;29.50;;;;;;6196306;27;80838;-69
2021/04/07 05:54:05;;;;;;;9.15;5.43;;;23.20;29.30;;;;;;6201886;27;80739;-67
2021/04/07 05:57:05;;;;;;;14.40;5.95;;;23.20;29.90;;;;;;6199756;27;80708;-67
2021/04/07 06:00:06;;;;;;;14.23;5.45;;;23.20;29.40;;;;;;6200939;28;80890;-71
2021/04/07 06:03:08;;;;;;;11.52;5.47;;;23.10;29.50;;;;;;6192996;28;81105;-70
2021/04/07 06:06:10;;;;;;;11.45;5.85;;;23.10;29.00;;;;;;6193646;28;81068;-70
2021/04/07 06:09:11;;;;;;;9.02;5.70;;;23.10;29.50;;;;;;6214039;28;80464;-68
2021/04/07 06:12:11;;;;;;;12.50;5.88;;;23.10;29.40;;;;;;6225838;28;80668;-68
2021/04/07 06:15:12;;;;;;;9.40;5.50;;;23.00;29.40;;;;;;6210623;27;81119;-66
2021/04/07 06:18:13;;;;;;;10.45;5.63;;;23.10;29.20;;;;;;6206993;27;80808;-68
2021/04/07 06:21:14;;;;;;;8.77;5.47;;;23.00;29.30;;;;;;6208537;27;82034;-70
2021/04/07 06:24:15;;;;;;;10.48;6.10;;;23.00;28.90;;;;;;6216817;28;81344;-70
2021/04/07 06:27:15;;;;;;;13.43;5.20;;;22.90;28.90;;;;;;6211664;27;80389;-70
2021/04/07 06:30:16;;;;;;;15.23;6.03;;;23.00;29.00;;;;;;6202631;28;88232;-70
2021/04/07 06:33:16;;;;;;;13.30;6.05;;;23.00;29.20;;;;;;6205315;27;81011;-69
2021/04/07 06:36:17;;;;;;;13.75;5.68;;;23.00;29.30;;;;;;6204696;27;82007;-68
2021/04/07 06:39:18;;;;;;;11.38;5.90;;;22.90;29.70;;;;;;6168511;27;81191;-69
2021/04/07 06:42:18;;;;;;;10.45;5.82;;;23.00;29.80;;;;;;6200226;28;80815;-69
2021/04/07 06:45:19;;;;;;;9.73;5.65;;;23.00;29.40;;;;;;6199503;28;81539;-69
2021/04/07 06:48:20;;;;;;;10.43;5.68;;;23.00;29.80;;;;;;6196696;28;81134;-70
2021/04/07 06:51:20;;;;;;;9.93;5.93;;;23.00;29.90;;;;;;6178584;28;80991;-69
2021/04/07 06:54:21;;;;;;;9.18;5.18;;;23.00;29.70;;;;;;6198301;28;80727;-69
2021/04/07 06:57:22;;;;;;;9.20;5.32;;;23.00;29.50;;;;;;6199128;28;80902;-68
2021/04/07 07:00:23;;;;;;;13.43;5.68;;;23.00;30.00;;;;;;6208063;27;80515;-69
2021/04/07 07:03:24;;;;;;;10.05;5.22;;;23.00;30.00;;;;;;6198586;28;83111;-69
2021/04/07 07:06:24;;;;;;;14.45;5.75;;;23.00;29.90;;;;;;6198651;28;80655;-70
2021/04/07 07:09:25;;;;;;;8.75;5.22;;;23.00;29.90;;;;;;6194529;28;81973;-69
2021/04/07 07:12:25;;;;;;;10.23;5.03;;;23.00;29.80;;;;;;6192876;28;83124;-69
2021/04/07 07:15:26;;;;;;;9.43;5.32;;;23.00;29.60;;;;;;6198268;27;81986;-71
2021/04/07 07:18:27;;;;;;;7.65;4.80;;;23.00;29.40;;;;;;6199916;27;80185;-69
2021/04/07 07:21:27;;;;;;;8.70;5.85;;;22.90;29.90;;;;;;6215798;27;80889;-70
2021/04/07 07:24:28;;;;;;;9.85;5.07;;;23.00;29.70;;;;;;6206829;27;80449;-69
2021/04/07 07:27:28;;;;;;;8.85;4.90;;;23.00;30.10;;;;;;6206357;27;81348;-70
2021/04/07 07:30:29;;;;;;;10.05;5.53;;;23.00;29.90;;;;;;6198096;28;80330;-70
2021/04/07 07:33:32;;;;;;;6.50;4.00;;;23.00;29.70;;;;;;6213649;27;80849;-68
2021/04/07 07:36:32;;;;;;;7.47;4.35;;;23.00;29.50;;;;;;6216688;27;80202;-71
2021/04/07 07:39:33;;;;;;;9.70;4.72;;;23.00;28.80;;;;;;6222027;27;80782;-69
2021/04/07 07:42:33;;;;;;;10.77;5.05;;;23.00;28.80;;;;;;6221645;28;81893;-69
2021/04/07 07:45:35;;;;;;;12.68;5.15;;;23.00;28.90;;;;;;6202115;27;80756;-71
2021/04/07 07:48:35;;;;;;;9.43;4.60;;;23.00;28.60;;;;;;6190448;28;80701;-71
2021/04/07 07:51:36;;;;;;;11.38;5.22;;;23.10;28.50;;;;;;6211229;28;80421;-70
2021/04/07 07:54:36;;;;;;;11.38;4.57;;;23.20;28.30;;;;;;6222331;27;80311;-69
2021/04/07 07:57:37;;;;;;;6.60;4.32;;;23.20;28.30;;;;;;6207080;27;81629;-69
2021/04/07 08:00:37;;;;;;;7.10;4.40;;;23.30;28.20;;;;;;6193405;28;80582;-69
2021/04/07 08:03:38;;;;;;;7.78;4.78;;;23.30;28.00;;;;;;6201024;28;80986;-69
2021/04/07 08:06:38;;;;;;;9.38;5.28;;;23.30;27.80;;;;;;6201489;27;81592;-68
2021/04/07 08:09:39;;;;;;;8.48;5.10;;;23.40;27.70;;;;;;6201924;27;80843;-69
2021/04/07 08:12:40;;;;;;;10.57;5.10;;;23.50;27.70;;;;;;6199978;28;80927;-69
2021/04/07 08:15:41;;;;;;;8.82;4.88;;;23.50;27.80;;;;;;6207337;28;81141;-71
2021/04/07 08:18:42;;;;;;;10.50;5.80;;;23.50;27.60;;;;;;6196307;28;80381;-71
2021/04/07 08:21:42;;;;;;;7.35;4.43;;;23.60;27.60;;;;;;6200245;28;80745;-71
2021/04/07 08:24:43;;;;;;;6.55;4.40;;;23.60;27.70;;;;;;6215792;27;81878;-75
2021/04/07 08:27:43;;;;;;;11.43;4.93;;;23.60;27.70;;;;;;6219070;28;82466;-69
2021/04/07 08:30:44;;;;;;;8.43;4.95;;;23.60;27.60;;;;;;6207622;27;81300;-69
2021/04/07 08:33:44;;;;;;;8.70;5.05;;;23.70;27.60;;;;;;6166322;27;81840;-70
2021/04/07 08:36:45;;;;;;;7.78;4.93;;;23.70;27.60;;;;;;6197339;28;81759;-70
2021/04/07 08:39:46;;;;;;;7.68;4.80;;;23.70;27.40;;;;;;6173302;27;81737;-71
2021/04/07 08:42:47;;;;;;;8.63;4.80;;;23.80;27.40;;;;;;6194501;28;81187;-70
2021/04/07 08:45:48;;;;;;;9.57;4.75;;;23.80;27.40;;;;;;6196753;28;81268;-69
2021/04/07 08:48:48;;;;;;;7.75;4.18;;;23.80;27.40;;;;;;6203406;27;80394;-72
2021/04/07 08:51:49;;;;;;;11.52;4.85;;;23.70;27.40;;;;;;6191188;27;80544;-69
2021/04/07 08:54:49;;;;;;;7.18;4.70;;;23.80;27.60;;;;;;6210152;27;80501;-69
2021/04/07 08:57:50;;;;;;;9.32;4.40;;;23.70;28.10;;;;;;6203107;28;81708;-71
2021/04/07 09:00:50;;;;;;;10.75;4.80;;;23.70;28.40;;;;;;6210080;27;83347;-70
2021/04/07 09:03:51;;;;;;;10.63;5.03;;;23.70;28.70;;;;;;6203709;28;81565;-69
2021/04/07 09:06:51;;;;;;;11.65;5.55;;;23.70;28.50;;;;;;6202942;27;80998;-71
2021/04/07 09:09:52;;;;;;;8.75;4.50;;;23.70;28.80;;;;;;6202504;28;83220;-72
2021/04/07 09:12:52;;;;;;;10.68;4.55;;;23.70;29.20;;;;;;6201101;27;80372;-72
2021/04/07 09:15:53;;;;;;;7.38;3.90;;;23.70;28.60;;;;;;6201321;27;82239;-71
2021/04/07 09:18:53;;;;;;;7.35;3.85;;;23.70;28.50;;;;;;6212055;28;80650;-71
2021/04/07 09:21:54;;;;;;;6.53;4.10;;;23.60;28.70;;;;;;6217745;27;80444;-71
2021/04/07 09:24:55;;;;;;;5.90;3.75;;;23.60;28.60;;;;;;6205162;27;80789;-71
2021/04/07 09:27:55;;;;;;;7.20;4.07;;;23.60;29.30;;;;;;6196920;27;80732;-70
2021/04/07 09:30:56;;;;;;;5.90;3.58;;;23.70;30.60;;;;;;6199485;28;82853;-71
2021/04/07 09:33:56;;;;;;;8.43;4.22;;;23.70;30.70;;;;;;6215691;28;80460;-70
2021/04/07 09:36:57;;;;;;;8.93;4.38;;;23.70;31.80;;;;;;6208782;28;80459;-71
2021/04/07 09:39:57;;;;;;;5.72;4.13;;;23.70;33.70;;;;;;6210721;28;81374;-71
2021/04/07 09:42:58;;;;;;;5.97;4.22;;;23.80;35.50;;;;;;6190306;28;82706;-68
2021/04/07 09:45:58;;;;;;;6.00;3.78;;;23.80;36.40;;;;;;6197588;28;81592;-67
2021/04/07 09:48:59;;;;;;;8.50;4.00;;;23.70;35.30;;;;;;6190678;28;80747;-68
2021/04/07 09:51:59;;;;;;;6.68;3.70;;;23.70;35.60;;;;;;6191359;27;81290;-67
2021/04/07 09:55:00;;;;;;;16.95;4.50;;;23.80;35.80;;;;;;6195970;28;81009;-69
2021/04/07 09:58:00;;;;;;;8.75;4.25;;;23.80;35.60;;;;;;6202148;28;81154;-71
2021/04/07 10:01:01;;;;;;;7.15;3.88;;;23.80;35.20;;;;;;6199823;27;80627;-70
2021/04/07 10:04:01;;;;;;;6.82;4.10;;;23.80;34.70;;;;;;6197975;27;80568;-67
2021/04/07 10:07:02;;;;;;;7.25;3.88;;;23.80;34.20;;;;;;6191373;27;80907;-68
2021/04/07 10:10:02;;;;;;;8.82;4.00;;;23.70;33.80;;;;;;6198087;28;81458;-68
2021/04/07 10:13:03;;;;;;;6.10;3.60;;;23.70;33.00;;;;;;6206102;28;81697;-69
2021/04/07 10:16:03;;;;;;;5.60;3.80;;;23.70;33.40;;;;;;6199960;28;81957;-69
2021/04/07 10:19:04;;;;;;;5.80;3.75;;;23.70;33.40;;;;;;6196271;28;81468;-71
2021/04/07 10:22:13;;;;;;;6.60;3.30;;;23.70;33.00;;;;;;6186444;28;81329;-70
2021/04/07 10:25:15;;;;;;;7.63;3.97;;;23.60;32.00;;;;;;6223189;27;80919;-69
2021/04/07 10:28:16;;;;;;;6.57;3.53;;;23.60;32.50;;;;;;6219266;27;81694;-69
2021/04/07 10:31:16;;;;;;;3.80;2.80;;;23.70;32.80;;;;;;6213731;28;82036;-70
2021/04/07 10:34:17;;;;;;;6.18;3.40;;;23.70;33.00;;;;;;6178280;27;80970;-70
2021/04/07 10:37:18;;;;;;;5.90;3.10;;;23.70;32.90;;;;;;6216240;27;81391;-71
2021/04/07 10:40:19;;;;;;;7.75;3.15;;;23.70;32.80;;;;;;6193951;27;82002;-69
2021/04/07 10:43:19;;;;;;;8.70;3.42;;;23.70;32.90;;;;;;6202414;28;82436;-69
2021/04/07 10:46:20;;;;;;;3.83;3.13;;;23.70;32.90;;;;;;6196425;28;80820;-70
2021/04/07 10:49:21;;;;;;;10.43;3.53;;;23.70;32.70;;;;;;6190631;27;81533;-68
2021/04/07 10:52:22;;;;;;;5.47;3.13;;;23.70;32.20;;;;;;6194540;27;80151;-67
2021/04/07 10:55:23;;;;;;;5.53;3.63;;;23.70;31.00;;;;;;6201721;27;81618;-68
2021/04/07 10:58:23;;;;;;;6.07;3.53;;;23.70;31.50;;;;;;6193976;28;81805;-69
2021/04/07 11:01:24;;;;;;;6.22;3.38;;;23.70;31.70;;;;;;6189912;28;81406;-67
2021/04/07 11:04:27;;;;;;;5.70;2.80;;;23.70;30.90;;;;;;6188741;28;83614;-66
2021/04/07 11:07:28;;;;;;;6.72;3.28;;;23.70;31.20;;;;;;6213093;28;83140;-67
2021/04/07 11:10:30;;;;;;;4.03;3.05;;;23.70;31.90;;;;;;6219337;27;82492;-69
2021/04/07 11:13:31;;;;;;;9.07;3.05;;;23.70;32.90;;;;;;6196806;28;81368;-69
2021/04/07 11:16:31;;;;;;;9.38;2.95;;;23.70;33.00;;;;;;6196225;27;81059;-69
2021/04/07 11:19:32;;;;;;;7.75;3.20;;;23.60;32.60;;;;;;6198740;27;80868;-68
2021/04/07 11:22:32;;;;;;;9.05;3.03;;;23.70;32.50;;;;;;6200618;28;82444;-65
2021/04/07 11:25:33;;;;;;;7.47;2.90;;;23.70;32.80;;;;;;6200839;27;80857;-65
2021/04/07 11:28:33;;;;;;;8.63;3.65;;;23.70;32.10;;;;;;6198935;28;80773;-70
2021/04/07 11:31:35;;;;;;;6.53;3.47;;;23.70;31.80;;;;;;6214550;28;81488;-68
2021/04/07 11:34:51;;;;;;;9.15;3.30;;;23.70;31.50;;;;;;6198897;27;80921;-69
2021/04/07 11:37:55;;;;;;;4.47;2.97;;;23.70;31.60;;;;;;6193191;28;85915;-70
2021/04/07 11:47:05;;;;;;;5.35;2.83;;;23.60;31.40;;;;;;6199177;28;80858;-67
2021/04/07 11:50:07;;;;;;;7.90;3.15;;;23.60;31.20;;;;;;6200562;28;81025;-64
2021/04/07 11:53:08;;;;;;;6.25;3.58;;;23.50;30.90;;;;;;6190123;28;82314;-65
2021/04/07 11:56:08;;;;;;;5.82;3.22;;;23.50;30.70;;;;;;6188052;28;81353;-64
2021/04/07 11:59:09;;;;;;;5.28;2.65;;;23.50;30.80;;;;;;6202636;27;80421;-65
2021/04/07 12:02:09;;;;;;;4.88;3.50;;;23.50;30.70;;;;;;6210921;27;81046;-65
2021/04/07 12:05:10;;;;;;;5.63;3.28;;;23.50;30.80;;;;;;6200060;28;80595;-66
2021/04/07 12:08:11;;;;;;;5.05;3.15;;;23.50;30.50;;;;;;6200743;27;80953;-66
2021/04/07 12:11:11;;;;;;;11.80;3.65;;;23.40;30.30;;;;;;6198534;28;80561;-65
2021/04/07 12:14:12;;;;;;;5.72;3.30;;;23.40;30.20;;;;;;6196354;27;81075;-66
2021/04/07 12:17:12;;;;;;;5.65;3.25;;;23.40;30.20;;;;;;6209617;27;80613;-64
2021/04/07 12:20:13;;;;;;;5.75;3.80;;;23.50;30.30;;;;;;6222984;27;81036;-66
2021/04/07 12:23:13;;;;;;;7.88;3.53;;;23.50;30.00;;;;;;6214525;27;80430;-67
2021/04/07 12:26:15;;;;;;;5.32;3.22;;;23.50;30.30;;;;;;6194164;28;81637;-66
2021/04/07 12:29:15;;;;;;;6.50;3.70;;;23.50;30.00;;;;;;6213366;28;82023;-67
2021/04/07 12:32:16;;;;;;;5.60;3.25;;;23.50;30.10;;;;;;6197411;28;81070;-66
2021/04/07 12:35:16;;;;;;;5.65;3.50;;;23.50;30.00;;;;;;6195642;28;80783;-66
2021/04/07 12:38:17;;;;;;;4.57;3.10;;;23.50;30.00;;;;;;6202029;28;80562;-66
2021/04/07 12:44:18;;;;;;;5.93;3.13;;;23.40;29.70;;;;;;6215278;28;81157;-65
2021/04/07 12:47:18;;;;;;;7.07;3.97;;;23.50;29.60;;;;;;6216698;28;80829;-65
2021/04/07 12:50:19;;;;;;;6.13;3.50;;;23.50;29.60;;;;;;6201636;28;80444;-65
2021/04/07 12:53:19;;;;;;;7.60;3.60;;;23.50;29.40;;;;;;6199161;28;80809;-65
2021/04/07 12:56:21;;;;;;;6.78;3.25;;;23.50;29.50;;;;;;6197583;27;81573;-65
2021/04/07 12:59:21;;;;;;;5.95;3.83;;;23.50;29.60;;;;;;6192937;27;81417;-66
2021/04/07 13:02:22;;;;;;;5.35;3.50;;;23.50;28.90;;;;;;6204199;27;80903;-65
2021/04/07 13:05:22;;;;;;;5.07;3.25;;;23.50;28.80;;;;;;6209947;28;80363;-65
2021/04/07 13:08:23;;;;;;;5.32;3.13;;;23.50;29.10;;;;;;6210040;28;80584;-65
2021/04/07 13:11:23;;;;;;;7.07;3.03;;;23.50;29.40;;;;;;6197138;27;81224;-66
2021/04/07 13:14:24;;;;;;;5.57;3.38;;;23.50;29.40;;;;;;6192873;27;80603;-66
2021/04/07 13:17:24;;;;;;;5.18;3.03;;;23.50;29.30;;;;;;6208828;28;80676;-65
2021/04/07 13:20:27;;;;;;;4.28;3.03;;;23.50;29.40;;;;;;6200850;28;81446;-65
2021/04/07 13:23:28;;;;;;;4.95;3.15;;;23.50;29.50;;;;;;6188597;27;81354;-65
2021/04/07 13:26:28;;;;;;;3.72;2.60;;;23.50;29.40;;;;;;6168795;27;80312;-65
2021/04/07 13:29:29;;;;;;;3.22;2.40;;;23.60;29.60;;;;;;6191967;28;80093;-65
2021/04/07 13:32:30;;;;;;;2.97;2.33;;;23.60;29.50;;;;;;6195943;27;81578;-65
2021/04/07 13:45:14;;;;;;;3.33;2.10;;;23.80;29.60;;;;;;6215741;27;80906;-68
2021/04/07 13:48:19;;;;;;;4.55;2.22;;;23.80;29.60;;;;;;6199024;27;81244;-69
2021/04/07 13:51:20;;;;;;;5.15;2.30;;;23.80;29.70;;;;;;6222182;27;80713;-68
2021/04/07 13:54:20;;;;;;;3.75;2.47;;;23.90;29.60;;;;;;6209733;28;80382;-67
2021/04/07 13:57:28;;;;;;;4.72;2.67;;;23.80;29.40;;;;;;6170215;27;81468;-68
2021/04/07 14:00:28;;;;;;;2.42;2.17;;;23.80;29.50;;;;;;6199433;28;81774;-69
2021/04/07 14:03:29;;;;;;;3.33;2.20;;;23.80;29.60;;;;;;6200163;27;81140;-69
2021/04/07 14:06:30;;;;;;;3.35;2.10;;;23.80;29.40;;;;;;6191542;28;81634;-70
2021/04/07 14:09:32;;;;;;;3.10;1.88;;;23.80;29.30;;;;;;6204339;28;81075;-70
2021/04/07 14:12:42;;;;;;;4.13;2.50;;;23.80;29.50;;;;;;6182290;28;82384;-70
2021/04/07 14:15:43;;;;;;;4.40;2.67;;;23.80;29.50;;;;;;6195345;28;81488;-71
2021/04/07 14:18:50;;;;;;;3.15;2.15;;;23.80;29.80;;;;;;6188138;27;81637;-71
2021/04/07 14:21:50;;;;;;;5.20;2.63;;;23.80;29.80;;;;;;6184236;27;80683;-71
2021/04/07 14:24:51;;;;;;;5.93;2.03;;;23.80;29.90;;;;;;6209012;28;80444;-71
2021/04/07 14:27:56;;;;;;;4.57;2.03;;;23.80;29.90;;;;;;6222447;27;80766;-70
2021/04/07 14:30:57;;;;;;;4.57;2.13;;;23.80;29.90;;;;;;6215604;27;80493;-70
2021/04/07 14:33:57;;;;;;;8.35;2.28;;;23.70;29.80;;;;;;6210612;27;81527;-69
2021/04/07 14:36:58;;;;;;;5.70;2.00;;;23.80;29.90;;;;;;6193802;27;81394;-68
2021/04/07 14:39:58;;;;;;;2.38;1.80;;;23.70;29.80;;;;;;6195794;28;81770;-69
2021/04/07 14:42:59;;;;;;;5.57;2.30;;;23.80;29.90;;;;;;6209126;28;80446;-69
2021/04/07 14:46:04;;;;;;;13.07;2.42;;;23.80;29.70;;;;;;6195902;27;80321;-68
2021/04/07 14:49:04;;;;;;;4.88;2.25;;;23.80;29.60;;;;;;6199119;27;81350;-68
2021/04/07 14:52:10;;;;;;;7.93;1.92;;;23.80;29.10;;;;;;6198996;28;89254;-69
2021/04/07 14:55:11;;;;;;;;;;;23.80;29.00;;;;;;6211305;28;85330;-67
2021/04/07 14:58:11;;;;;;;6.90;2.20;;;23.80;29.90;;;;;;6203802;27;79163;-70
2021/04/07 15:01:12;;;;;;;6.03;2.22;;;23.80;30.40;;;;;;6211049;28;80556;-69
2021/04/07 15:04:12;;;;;;;5.35;2.35;;;23.80;30.50;;;;;;6223178;27;80263;-68
2021/04/07 15:07:13;;;;;;;4.50;2.15;;;23.80;30.70;;;;;;6220193;28;81400;-69
2021/04/07 15:10:13;;;;;;;9.60;2.53;;;23.80;30.70;;;;;;6207087;28;80947;-69
2021/04/07 15:13:14;;;;;;;6.72;2.22;;;23.70;31.70;;;;;;6190231;28;80360;-69
2021/04/07 15:16:15;;;;;;;5.45;2.03;;;23.70;32.60;;;;;;6190935;27;80859;-69
2021/04/07 15:19:15;;;;;;;15.57;2.85;;;23.80;31.70;;;;;;6197723;28;81461;-69
2021/04/07 15:22:18;;;;;;;8.35;2.35;;;23.70;32.20;;;;;;6188640;28;80397;-68
2021/04/07 15:25:28;;;;;;;4.45;2.35;;;23.70;32.10;;;;;;6215001;28;81212;-67
2021/04/07 15:28:33;;;;;;;10.02;3.00;;;23.70;31.50;;;;;;6217387;27;80704;-67
2021/04/07 15:31:35;;;;;;;4.15;2.58;;;23.60;31.00;;;;;;6219199;28;80491;-67
2021/04/07 15:34:35;;;;;;;6.40;2.95;;;23.60;30.90;;;;;;6195018;27;80640;-68
2021/04/07 15:37:36;;;;;;;5.43;3.10;;;23.60;30.70;;;;;;6187296;28;81797;-67
2021/04/07 15:40:36;;;;;;;9.25;2.78;;;23.60;30.80;;;;;;6192507;27;81557;-66
2021/04/07 15:43:37;;;;;;;4.85;2.78;;;23.60;31.30;;;;;;6194597;28;80381;-68
2021/04/07 15:46:37;;;;;;;9.48;3.08;;;23.70;30.50;;;;;;6196348;28;81951;-70
2021/04/07 15:49:38;;;;;;;5.70;2.90;;;23.60;30.30;;;;;;6199778;27;80571;-71
2021/04/07 15:52:39;;;;;;;6.78;3.45;;;23.60;30.30;;;;;;6197477;27;80914;-70
2021/04/07 15:55:40;;;;;;;7.05;3.63;;;23.60;31.30;;;;;;6198271;28;80960;-72